sensor_id;sensor_type;location;lat;lon;timestamp;P1;durP1;ratioP1;P2;durP2;ratioP2
36279;SDS011;22317;47.936;12.742;2022-12-07T00:01:08;11.10;;;9.30;;
36279;SDS011;22317;47.936;12.742;2022-12-07T00:04:01;12.47;;;9.80;;
36279;SDS011;22317;47.936;12.742;2022-12-07T00:06:35;12.70;;;9.67;;
36279;SDS011;22317;47.936;12.742;2022-12-07T00:09:05;12.40;;;10.43;;
36279;SDS011;22317;47.936;12.742;2022-12-07T00:11:33;11.10;;;8.63;;
36279;SDS011;22317;47.936;12.742;2022-12-07T00:13:59;10.43;;;8.20;;
36279;SDS011;22317;47.936;12.742;2022-12-07T00:16:28;11.60;;;9.30;;
36279;SDS011;22317;47.936;12.742;2022-12-07T00:18:55;11.33;;;8.67;;
36279;SDS011;22317;47.936;12.742;2022-12-07T00:21:23;12.30;;;10.03;;
36279;SDS011;22317;47.936;12.742;2022-12-07T00:23:51;12.50;;;10.07;;
36279;SDS011;22317;47.936;12.742;2022-12-07T00:26:19;13.33;;;9.30;;
36279;SDS011;22317;47.936;12.742;2022-12-07T00:28:50;14.37;;;10.37;;
36279;SDS011;22317;47.936;12.742;2022-12-07T00:31:18;15.20;;;10.50;;
36279;SDS011;22317;47.936;12.742;2022-12-07T00:33:45;12.73;;;9.90;;
36279;SDS011;22317;47.936;12.742;2022-12-07T00:36:13;15.20;;;10.93;;
36279;SDS011;22317;47.936;12.742;2022-12-07T00:38:43;14.00;;;9.57;;
36279;SDS011;22317;47.936;12.742;2022-12-07T00:43:40;15.20;;;10.87;;
36279;SDS011;22317;47.936;12.742;2022-12-07T00:46:07;13.97;;;10.40;;
36279;SDS011;22317;47.936;12.742;2022-12-07T00:48:33;12.60;;;10.60;;
36279;SDS011;22317;47.936;12.742;2022-12-07T00:50:59;14.80;;;10.80;;
36279;SDS011;22317;47.936;12.742;2022-12-07T00:53:25;14.47;;;10.30;;
36279;SDS011;22317;47.936;12.742;2022-12-07T00:55:52;16.10;;;11.20;;
36279;SDS011;22317;47.936;12.742;2022-12-07T00:58:18;19.10;;;11.97;;
36279;SDS011;22317;47.936;12.742;2022-12-07T01:00:44;15.53;;;11.27;;
36279;SDS011;22317;47.936;12.742;2022-12-07T01:03:11;18.73;;;12.83;;
36279;SDS011;22317;47.936;12.742;2022-12-07T01:05:37;15.60;;;11.47;;
36279;SDS011;22317;47.936;12.742;2022-12-07T01:08:03;16.43;;;11.60;;
36279;SDS011;22317;47.936;12.742;2022-12-07T01:10:30;17.43;;;11.23;;
36279;SDS011;22317;47.936;12.742;2022-12-07T01:12:57;19.03;;;12.47;;
36279;SDS011;22317;47.936;12.742;2022-12-07T01:15:23;17.40;;;12.20;;
36279;SDS011;22317;47.936;12.742;2022-12-07T01:17:48;18.10;;;12.57;;
36279;SDS011;22317;47.936;12.742;2022-12-07T01:20:14;16.80;;;11.37;;
36279;SDS011;22317;47.936;12.742;2022-12-07T01:22:41;18.57;;;11.53;;
36279;SDS011;22317;47.936;12.742;2022-12-07T01:25:08;15.13;;;11.27;;
36279;SDS011;22317;47.936;12.742;2022-12-07T01:27:35;17.10;;;11.93;;
36279;SDS011;22317;47.936;12.742;2022-12-07T01:30:02;16.63;;;11.37;;
36279;SDS011;22317;47.936;12.742;2022-12-07T01:32:29;14.47;;;10.93;;
36279;SDS011;22317;47.936;12.742;2022-12-07T01:34:55;20.17;;;12.07;;
36279;SDS011;22317;47.936;12.742;2022-12-07T01:37:20;17.27;;;11.97;;
36279;SDS011;22317;47.936;12.742;2022-12-07T01:39:50;18.00;;;11.87;;
36279;SDS011;22317;47.936;12.742;2022-12-07T01:42:17;17.43;;;12.27;;
36279;SDS011;22317;47.936;12.742;2022-12-07T01:47:52;18.80;;;12.00;;
36279;SDS011;22317;47.936;12.742;2022-12-07T01:50:20;17.17;;;12.10;;
36279;SDS011;22317;47.936;12.742;2022-12-07T01:52:49;19.73;;;12.90;;
36279;SDS011;22317;47.936;12.742;2022-12-07T01:55:20;18.33;;;12.27;;
36279;SDS011;22317;47.936;12.742;2022-12-07T01:57:49;19.20;;;12.17;;
36279;SDS011;22317;47.936;12.742;2022-12-07T02:00:18;17.63;;;12.27;;
36279;SDS011;22317;47.936;12.742;2022-12-07T02:02:49;22.77;;;13.80;;
36279;SDS011;22317;47.936;12.742;2022-12-07T02:05:31;21.70;;;12.33;;
36279;SDS011;22317;47.936;12.742;2022-12-07T02:07:58;21.70;;;13.67;;
36279;SDS011;22317;47.936;12.742;2022-12-07T02:10:26;17.20;;;12.13;;
36279;SDS011;22317;47.936;12.742;2022-12-07T02:12:55;18.77;;;12.57;;
36279;SDS011;22317;47.936;12.742;2022-12-07T02:18:25;19.00;;;12.43;;
36279;SDS011;22317;47.936;12.742;2022-12-07T02:27:05;17.37;;;11.73;;
36279;SDS011;22317;47.936;12.742;2022-12-07T02:29:38;17.50;;;11.30;;
36279;SDS011;22317;47.936;12.742;2022-12-07T02:34:51;16.10;;;11.80;;
36279;SDS011;22317;47.936;12.742;2022-12-07T02:40:38;15.77;;;10.73;;
36279;SDS011;22317;47.936;12.742;2022-12-07T02:43:13;16.17;;;9.63;;
36279;SDS011;22317;47.936;12.742;2022-12-07T02:45:43;14.20;;;10.63;;
36279;SDS011;22317;47.936;12.742;2022-12-07T02:48:12;14.67;;;10.63;;
36279;SDS011;22317;47.936;12.742;2022-12-07T02:50:45;15.43;;;10.63;;
36279;SDS011;22317;47.936;12.742;2022-12-07T03:13:02;13.37;;;9.77;;
36279;SDS011;22317;47.936;12.742;2022-12-07T03:15:49;14.50;;;10.50;;
36279;SDS011;22317;47.936;12.742;2022-12-07T03:18:22;13.70;;;9.20;;
36279;SDS011;22317;47.936;12.742;2022-12-07T03:20:52;13.90;;;10.27;;
36279;SDS011;22317;47.936;12.742;2022-12-07T03:23:22;13.43;;;9.07;;
36279;SDS011;22317;47.936;12.742;2022-12-07T03:25:52;12.70;;;9.73;;
36279;SDS011;22317;47.936;12.742;2022-12-07T03:28:22;15.90;;;9.63;;
36279;SDS011;22317;47.936;12.742;2022-12-07T03:30:56;13.70;;;9.80;;
36279;SDS011;22317;47.936;12.742;2022-12-07T03:33:31;13.63;;;9.80;;
36279;SDS011;22317;47.936;12.742;2022-12-07T03:36:05;13.47;;;9.63;;
36279;SDS011;22317;47.936;12.742;2022-12-07T03:38:40;12.43;;;8.60;;
36279;SDS011;22317;47.936;12.742;2022-12-07T03:41:16;12.77;;;9.60;;
36279;SDS011;22317;47.936;12.742;2022-12-07T03:43:46;11.13;;;8.80;;
36279;SDS011;22317;47.936;12.742;2022-12-07T03:54:41;11.20;;;8.97;;
36279;SDS011;22317;47.936;12.742;2022-12-07T03:57:12;12.53;;;8.87;;
36279;SDS011;22317;47.936;12.742;2022-12-07T03:59:38;9.30;;;8.00;;
36279;SDS011;22317;47.936;12.742;2022-12-07T04:02:05;12.67;;;9.40;;
36279;SDS011;22317;47.936;12.742;2022-12-07T04:04:32;10.80;;;8.80;;
36279;SDS011;22317;47.936;12.742;2022-12-07T04:06:59;11.27;;;8.97;;
36279;SDS011;22317;47.936;12.742;2022-12-07T04:09:25;12.57;;;8.93;;
36279;SDS011;22317;47.936;12.742;2022-12-07T04:11:51;12.43;;;9.83;;
36279;SDS011;22317;47.936;12.742;2022-12-07T04:14:17;12.97;;;9.33;;
36279;SDS011;22317;47.936;12.742;2022-12-07T04:19:14;10.43;;;9.23;;
36279;SDS011;22317;47.936;12.742;2022-12-07T04:21:41;10.20;;;8.30;;
36279;SDS011;22317;47.936;12.742;2022-12-07T04:24:07;12.83;;;9.43;;
36279;SDS011;22317;47.936;12.742;2022-12-07T04:26:33;10.77;;;9.30;;
36279;SDS011;22317;47.936;12.742;2022-12-07T04:28:59;11.03;;;9.17;;
36279;SDS011;22317;47.936;12.742;2022-12-07T04:31:25;13.90;;;9.40;;
36279;SDS011;22317;47.936;12.742;2022-12-07T04:33:50;11.37;;;8.90;;
36279;SDS011;22317;47.936;12.742;2022-12-07T04:36:16;11.30;;;9.43;;
36279;SDS011;22317;47.936;12.742;2022-12-07T04:38:42;11.77;;;8.57;;
36279;SDS011;22317;47.936;12.742;2022-12-07T04:41:08;12.30;;;9.50;;
36279;SDS011;22317;47.936;12.742;2022-12-07T04:43:35;10.13;;;8.53;;
36279;SDS011;22317;47.936;12.742;2022-12-07T04:46:01;13.87;;;8.97;;
36279;SDS011;22317;47.936;12.742;2022-12-07T04:48:27;12.27;;;9.80;;
36279;SDS011;22317;47.936;12.742;2022-12-07T04:50:53;11.67;;;9.17;;
36279;SDS011;22317;47.936;12.742;2022-12-07T04:53:19;11.43;;;8.90;;
36279;SDS011;22317;47.936;12.742;2022-12-07T04:55:45;11.47;;;9.23;;
36279;SDS011;22317;47.936;12.742;2022-12-07T04:58:11;12.43;;;9.77;;
36279;SDS011;22317;47.936;12.742;2022-12-07T05:00:37;14.67;;;9.40;;
36279;SDS011;22317;47.936;12.742;2022-12-07T05:03:03;12.27;;;9.73;;
36279;SDS011;22317;47.936;12.742;2022-12-07T05:05:32;11.17;;;9.17;;
36279;SDS011;22317;47.936;12.742;2022-12-07T05:07:58;11.97;;;9.50;;
36279;SDS011;22317;47.936;12.742;2022-12-07T05:10:24;12.33;;;9.97;;
36279;SDS011;22317;47.936;12.742;2022-12-07T05:12:49;13.43;;;10.30;;
36279;SDS011;22317;47.936;12.742;2022-12-07T05:15:15;10.87;;;9.57;;
36279;SDS011;22317;47.936;12.742;2022-12-07T05:17:41;11.23;;;9.23;;
36279;SDS011;22317;47.936;12.742;2022-12-07T05:20:07;11.77;;;9.17;;
36279;SDS011;22317;47.936;12.742;2022-12-07T05:22:34;10.97;;;9.73;;
36279;SDS011;22317;47.936;12.742;2022-12-07T05:25:00;15.63;;;10.53;;
36279;SDS011;22317;47.936;12.742;2022-12-07T05:27:26;13.43;;;10.07;;
36279;SDS011;22317;47.936;12.742;2022-12-07T05:29:52;17.23;;;12.10;;
36279;SDS011;22317;47.936;12.742;2022-12-07T05:32:18;15.20;;;11.10;;
36279;SDS011;22317;47.936;12.742;2022-12-07T05:34:45;14.10;;;10.90;;
36279;SDS011;22317;47.936;12.742;2022-12-07T05:37:10;14.50;;;10.90;;
36279;SDS011;22317;47.936;12.742;2022-12-07T05:39:36;14.60;;;11.60;;
36279;SDS011;22317;47.936;12.742;2022-12-07T05:42:05;10.90;;;9.50;;
36279;SDS011;22317;47.936;12.742;2022-12-07T05:44:38;12.73;;;10.00;;
36279;SDS011;22317;47.936;12.742;2022-12-07T05:47:08;11.90;;;9.70;;
36279;SDS011;22317;47.936;12.742;2022-12-07T05:49:35;13.07;;;10.00;;
36279;SDS011;22317;47.936;12.742;2022-12-07T05:52:00;16.33;;;11.90;;
36279;SDS011;22317;47.936;12.742;2022-12-07T05:54:27;11.97;;;10.13;;
36279;SDS011;22317;47.936;12.742;2022-12-07T05:56:52;13.60;;;10.43;;
36279;SDS011;22317;47.936;12.742;2022-12-07T05:59:18;12.93;;;10.73;;
36279;SDS011;22317;47.936;12.742;2022-12-07T06:01:53;21.47;;;16.03;;
36279;SDS011;22317;47.936;12.742;2022-12-07T06:04:21;56.37;;;35.43;;
36279;SDS011;22317;47.936;12.742;2022-12-07T06:06:47;16.03;;;12.50;;
36279;SDS011;22317;47.936;12.742;2022-12-07T06:09:13;18.10;;;14.40;;
36279;SDS011;22317;47.936;12.742;2022-12-07T06:11:39;18.50;;;13.40;;
36279;SDS011;22317;47.936;12.742;2022-12-07T06:14:24;20.50;;;15.07;;
36279;SDS011;22317;47.936;12.742;2022-12-07T06:16:50;24.93;;;17.60;;
36279;SDS011;22317;47.936;12.742;2022-12-07T06:19:16;19.07;;;14.37;;
36279;SDS011;22317;47.936;12.742;2022-12-07T06:21:42;17.93;;;15.07;;
36279;SDS011;22317;47.936;12.742;2022-12-07T06:24:11;16.90;;;13.27;;
36279;SDS011;22317;47.936;12.742;2022-12-07T06:26:38;15.43;;;12.27;;
36279;SDS011;22317;47.936;12.742;2022-12-07T06:29:04;16.40;;;11.23;;
36279;SDS011;22317;47.936;12.742;2022-12-07T06:31:30;16.23;;;12.63;;
36279;SDS011;22317;47.936;12.742;2022-12-07T06:34:00;18.00;;;13.63;;
36279;SDS011;22317;47.936;12.742;2022-12-07T06:36:27;14.87;;;12.63;;
36279;SDS011;22317;47.936;12.742;2022-12-07T06:38:53;18.57;;;14.20;;
36279;SDS011;22317;47.936;12.742;2022-12-07T06:41:19;14.73;;;11.60;;
36279;SDS011;22317;47.936;12.742;2022-12-07T06:43:45;15.60;;;12.30;;
36279;SDS011;22317;47.936;12.742;2022-12-07T06:46:11;15.07;;;11.90;;
36279;SDS011;22317;47.936;12.742;2022-12-07T06:48:37;16.80;;;12.00;;
36279;SDS011;22317;47.936;12.742;2022-12-07T06:51:03;13.70;;;11.70;;
36279;SDS011;22317;47.936;12.742;2022-12-07T06:53:29;15.33;;;12.63;;
36279;SDS011;22317;47.936;12.742;2022-12-07T06:55:54;15.53;;;11.73;;
36279;SDS011;22317;47.936;12.742;2022-12-07T06:58:20;14.10;;;11.03;;
36279;SDS011;22317;47.936;12.742;2022-12-07T07:00:47;14.17;;;11.57;;
36279;SDS011;22317;47.936;12.742;2022-12-07T07:03:14;14.53;;;11.70;;
36279;SDS011;22317;47.936;12.742;2022-12-07T07:05:40;14.43;;;11.70;;
36279;SDS011;22317;47.936;12.742;2022-12-07T07:08:06;15.17;;;12.10;;
36279;SDS011;22317;47.936;12.742;2022-12-07T07:10:32;13.47;;;11.40;;
36279;SDS011;22317;47.936;12.742;2022-12-07T07:12:58;16.87;;;13.00;;
36279;SDS011;22317;47.936;12.742;2022-12-07T07:15:24;15.43;;;11.73;;
36279;SDS011;22317;47.936;12.742;2022-12-07T07:17:50;14.93;;;11.40;;
36279;SDS011;22317;47.936;12.742;2022-12-07T07:20:15;15.13;;;12.17;;
36279;SDS011;22317;47.936;12.742;2022-12-07T07:22:41;16.33;;;13.10;;
36279;SDS011;22317;47.936;12.742;2022-12-07T07:25:07;14.60;;;11.90;;
36279;SDS011;22317;47.936;12.742;2022-12-07T07:27:33;14.07;;;11.27;;
36279;SDS011;22317;47.936;12.742;2022-12-07T07:29:59;15.27;;;12.67;;
36279;SDS011;22317;47.936;12.742;2022-12-07T07:32:24;16.20;;;11.77;;
36279;SDS011;22317;47.936;12.742;2022-12-07T07:34:50;16.83;;;12.47;;
36279;SDS011;22317;47.936;12.742;2022-12-07T07:37:16;13.43;;;11.43;;
36279;SDS011;22317;47.936;12.742;2022-12-07T07:39:41;14.60;;;11.93;;
36279;SDS011;22317;47.936;12.742;2022-12-07T07:42:07;15.27;;;12.17;;
36279;SDS011;22317;47.936;12.742;2022-12-07T07:44:33;18.00;;;14.07;;
36279;SDS011;22317;47.936;12.742;2022-12-07T07:46:59;15.00;;;12.53;;
36279;SDS011;22317;47.936;12.742;2022-12-07T07:49:25;15.47;;;12.83;;
36279;SDS011;22317;47.936;12.742;2022-12-07T07:51:51;15.30;;;12.50;;
36279;SDS011;22317;47.936;12.742;2022-12-07T07:54:17;16.27;;;12.83;;
36279;SDS011;22317;47.936;12.742;2022-12-07T07:56:43;16.13;;;12.97;;
36279;SDS011;22317;47.936;12.742;2022-12-07T07:59:09;19.23;;;13.20;;
36279;SDS011;22317;47.936;12.742;2022-12-07T08:01:34;17.80;;;14.27;;
36279;SDS011;22317;47.936;12.742;2022-12-07T08:04:00;22.93;;;16.10;;
36279;SDS011;22317;47.936;12.742;2022-12-07T08:06:26;22.37;;;16.17;;
36279;SDS011;22317;47.936;12.742;2022-12-07T08:08:52;21.37;;;16.07;;
36279;SDS011;22317;47.936;12.742;2022-12-07T08:11:17;19.57;;;14.47;;
36279;SDS011;22317;47.936;12.742;2022-12-07T08:13:47;17.17;;;13.30;;
36279;SDS011;22317;47.936;12.742;2022-12-07T08:16:13;17.67;;;13.53;;
36279;SDS011;22317;47.936;12.742;2022-12-07T08:18:40;20.80;;;16.37;;
36279;SDS011;22317;47.936;12.742;2022-12-07T08:21:07;28.77;;;19.73;;
36279;SDS011;22317;47.936;12.742;2022-12-07T08:23:37;17.47;;;13.23;;
36279;SDS011;22317;47.936;12.742;2022-12-07T08:26:04;21.20;;;14.73;;
36279;SDS011;22317;47.936;12.742;2022-12-07T08:28:31;23.50;;;16.13;;
36279;SDS011;22317;47.936;12.742;2022-12-07T08:31:01;20.57;;;13.67;;
36279;SDS011;22317;47.936;12.742;2022-12-07T08:33:28;19.53;;;13.43;;
36279;SDS011;22317;47.936;12.742;2022-12-07T08:35:54;18.57;;;13.27;;
36279;SDS011;22317;47.936;12.742;2022-12-07T08:38:24;15.33;;;12.57;;
36279;SDS011;22317;47.936;12.742;2022-12-07T08:40:54;17.97;;;13.03;;
36279;SDS011;22317;47.936;12.742;2022-12-07T08:43:20;17.40;;;13.50;;
36279;SDS011;22317;47.936;12.742;2022-12-07T08:45:47;16.47;;;12.93;;
36279;SDS011;22317;47.936;12.742;2022-12-07T08:48:22;17.77;;;13.37;;
36279;SDS011;22317;47.936;12.742;2022-12-07T08:50:49;16.37;;;13.33;;
36279;SDS011;22317;47.936;12.742;2022-12-07T08:53:16;15.20;;;11.77;;
36279;SDS011;22317;47.936;12.742;2022-12-07T08:55:43;13.47;;;10.27;;
36279;SDS011;22317;47.936;12.742;2022-12-07T08:58:10;10.53;;;9.13;;
36279;SDS011;22317;47.936;12.742;2022-12-07T09:00:36;13.77;;;11.37;;
36279;SDS011;22317;47.936;12.742;2022-12-07T09:03:01;10.67;;;8.10;;
36279;SDS011;22317;47.936;12.742;2022-12-07T09:05:27;13.10;;;8.23;;
36279;SDS011;22317;47.936;12.742;2022-12-07T09:07:54;8.93;;;7.80;;
36279;SDS011;22317;47.936;12.742;2022-12-07T09:10:24;8.80;;;7.43;;
36279;SDS011;22317;47.936;12.742;2022-12-07T09:12:51;8.17;;;7.37;;
36279;SDS011;22317;47.936;12.742;2022-12-07T09:15:16;7.90;;;7.10;;
36279;SDS011;22317;47.936;12.742;2022-12-07T09:17:42;8.43;;;7.13;;
36279;SDS011;22317;47.936;12.742;2022-12-07T09:20:08;9.60;;;8.27;;
36279;SDS011;22317;47.936;12.742;2022-12-07T09:22:34;10.37;;;8.90;;
36279;SDS011;22317;47.936;12.742;2022-12-07T09:25:01;10.40;;;8.63;;
36279;SDS011;22317;47.936;12.742;2022-12-07T09:27:27;9.07;;;8.13;;
36279;SDS011;22317;47.936;12.742;2022-12-07T09:29:53;12.40;;;8.57;;
36279;SDS011;22317;47.936;12.742;2022-12-07T09:32:19;11.77;;;10.10;;
36279;SDS011;22317;47.936;12.742;2022-12-07T09:34:45;12.23;;;8.63;;
36279;SDS011;22317;47.936;12.742;2022-12-07T09:37:11;12.83;;;8.60;;
36279;SDS011;22317;47.936;12.742;2022-12-07T09:39:37;10.13;;;9.03;;
36279;SDS011;22317;47.936;12.742;2022-12-07T09:42:03;11.03;;;9.27;;
36279;SDS011;22317;47.936;12.742;2022-12-07T09:44:32;15.80;;;11.80;;
36279;SDS011;22317;47.936;12.742;2022-12-07T09:46:58;15.43;;;10.40;;
36279;SDS011;22317;47.936;12.742;2022-12-07T09:49:25;25.97;;;16.70;;
36279;SDS011;22317;47.936;12.742;2022-12-07T09:52:01;8.20;;;7.43;;
36279;SDS011;22317;47.936;12.742;2022-12-07T09:54:39;10.37;;;8.17;;
36279;SDS011;22317;47.936;12.742;2022-12-07T09:57:08;8.33;;;7.53;;
36279;SDS011;22317;47.936;12.742;2022-12-07T09:59:37;8.80;;;7.53;;
36279;SDS011;22317;47.936;12.742;2022-12-07T10:02:25;9.30;;;8.40;;
36279;SDS011;22317;47.936;12.742;2022-12-07T10:05:35;8.57;;;7.67;;
36279;SDS011;22317;47.936;12.742;2022-12-07T10:08:03;11.30;;;9.27;;
36279;SDS011;22317;47.936;12.742;2022-12-07T10:10:31;11.73;;;10.50;;
36279;SDS011;22317;47.936;12.742;2022-12-07T10:15:44;9.47;;;8.50;;
36279;SDS011;22317;47.936;12.742;2022-12-07T10:18:26;6.10;;;5.60;;
36279;SDS011;22317;47.936;12.742;2022-12-07T10:21:00;12.27;;;8.80;;
36279;SDS011;22317;47.936;12.742;2022-12-07T10:23:33;10.87;;;9.50;;
36279;SDS011;22317;47.936;12.742;2022-12-07T10:25:59;8.37;;;6.87;;
36279;SDS011;22317;47.936;12.742;2022-12-07T10:28:46;9.67;;;8.67;;
36279;SDS011;22317;47.936;12.742;2022-12-07T10:31:20;6.63;;;6.00;;
36279;SDS011;22317;47.936;12.742;2022-12-07T10:33:52;9.00;;;8.10;;
36279;SDS011;22317;47.936;12.742;2022-12-07T10:36:27;8.67;;;6.93;;
36279;SDS011;22317;47.936;12.742;2022-12-07T10:44:32;6.80;;;5.93;;
36279;SDS011;22317;47.936;12.742;2022-12-07T10:55:17;10.10;;;7.53;;
36279;SDS011;22317;47.936;12.742;2022-12-07T11:00:19;4.30;;;4.00;;
36279;SDS011;22317;47.936;12.742;2022-12-07T11:08:32;3.00;;;2.80;;
36279;SDS011;22317;47.936;12.742;2022-12-07T11:11:09;3.63;;;2.80;;
36279;SDS011;22317;47.936;12.742;2022-12-07T11:26:02;3.57;;;3.10;;
36279;SDS011;22317;47.936;12.742;2022-12-07T11:30:47;3.67;;;3.37;;
36279;SDS011;22317;47.936;12.742;2022-12-07T11:33:47;4.27;;;3.97;;
36279;SDS011;22317;47.936;12.742;2022-12-07T11:36:33;3.43;;;3.20;;
36279;SDS011;22317;47.936;12.742;2022-12-07T11:39:12;3.93;;;3.50;;
36279;SDS011;22317;47.936;12.742;2022-12-07T11:41:44;3.70;;;3.40;;
36279;SDS011;22317;47.936;12.742;2022-12-07T11:44:31;4.20;;;3.90;;
36279;SDS011;22317;47.936;12.742;2022-12-07T11:47:06;5.93;;;5.37;;
36279;SDS011;22317;47.936;12.742;2022-12-07T11:52:45;4.93;;;4.43;;
36279;SDS011;22317;47.936;12.742;2022-12-07T11:58:08;20.30;;;11.97;;
36279;SDS011;22317;47.936;12.742;2022-12-07T12:00:49;32.73;;;13.23;;
36279;SDS011;22317;47.936;12.742;2022-12-07T12:03:23;9.10;;;6.93;;
36279;SDS011;22317;47.936;12.742;2022-12-07T12:05:56;8.70;;;5.80;;
36279;SDS011;22317;47.936;12.742;2022-12-07T12:08:56;5.17;;;3.70;;
36279;SDS011;22317;47.936;12.742;2022-12-07T12:22:12;6.13;;;5.53;;
36279;SDS011;22317;47.936;12.742;2022-12-07T12:24:45;3.17;;;2.83;;
36279;SDS011;22317;47.936;12.742;2022-12-07T12:33:29;12.03;;;8.27;;
36279;SDS011;22317;47.936;12.742;2022-12-07T12:46:45;8.20;;;4.33;;
36279;SDS011;22317;47.936;12.742;2022-12-07T12:54:24;3.60;;;3.30;;
36279;SDS011;22317;47.936;12.742;2022-12-07T13:01:48;4.27;;;3.73;;
36279;SDS011;22317;47.936;12.742;2022-12-07T13:06:59;38.47;;;23.73;;
36279;SDS011;22317;47.936;12.742;2022-12-07T13:09:29;6.37;;;3.90;;
36279;SDS011;22317;47.936;12.742;2022-12-07T13:12:02;3.37;;;3.07;;
36279;SDS011;22317;47.936;12.742;2022-12-07T13:17:08;3.50;;;3.10;;
36279;SDS011;22317;47.936;12.742;2022-12-07T13:20:01;3.03;;;2.77;;
36279;SDS011;22317;47.936;12.742;2022-12-07T13:25:10;3.27;;;3.07;;
36279;SDS011;22317;47.936;12.742;2022-12-07T13:27:40;3.50;;;3.20;;
36279;SDS011;22317;47.936;12.742;2022-12-07T13:30:13;3.40;;;3.13;;
36279;SDS011;22317;47.936;12.742;2022-12-07T13:32:41;4.53;;;4.13;;
36279;SDS011;22317;47.936;12.742;2022-12-07T13:38:22;7.63;;;6.57;;
36279;SDS011;22317;47.936;12.742;2022-12-07T13:41:02;4.30;;;3.90;;
36279;SDS011;22317;47.936;12.742;2022-12-07T13:43:30;8.90;;;7.03;;
36279;SDS011;22317;47.936;12.742;2022-12-07T13:45:59;5.40;;;4.90;;
36279;SDS011;22317;47.936;12.742;2022-12-07T13:48:36;10.07;;;7.23;;
36279;SDS011;22317;47.936;12.742;2022-12-07T13:51:24;9.57;;;8.67;;
36279;SDS011;22317;47.936;12.742;2022-12-07T13:53:53;6.63;;;6.00;;
36279;SDS011;22317;47.936;12.742;2022-12-07T13:56:22;6.63;;;5.43;;
36279;SDS011;22317;47.936;12.742;2022-12-07T13:58:56;4.83;;;4.43;;
36279;SDS011;22317;47.936;12.742;2022-12-07T14:01:22;3.53;;;3.23;;
36279;SDS011;22317;47.936;12.742;2022-12-07T14:03:50;6.17;;;5.67;;
36279;SDS011;22317;47.936;12.742;2022-12-07T14:06:25;4.10;;;3.80;;
36279;SDS011;22317;47.936;12.742;2022-12-07T14:09:06;3.70;;;3.40;;
36279;SDS011;22317;47.936;12.742;2022-12-07T14:11:46;4.10;;;3.33;;
36279;SDS011;22317;47.936;12.742;2022-12-07T14:14:16;4.20;;;3.90;;
36279;SDS011;22317;47.936;12.742;2022-12-07T14:16:54;4.00;;;3.70;;
36279;SDS011;22317;47.936;12.742;2022-12-07T14:24:49;5.27;;;4.80;;
36279;SDS011;22317;47.936;12.742;2022-12-07T14:27:22;4.93;;;4.53;;
36279;SDS011;22317;47.936;12.742;2022-12-07T14:29:51;5.17;;;4.33;;
36279;SDS011;22317;47.936;12.742;2022-12-07T14:32:24;3.97;;;3.67;;
36279;SDS011;22317;47.936;12.742;2022-12-07T14:34:56;4.87;;;4.43;;
36279;SDS011;22317;47.936;12.742;2022-12-07T14:37:35;5.07;;;4.67;;
36279;SDS011;22317;47.936;12.742;2022-12-07T14:40:02;4.93;;;4.43;;
36279;SDS011;22317;47.936;12.742;2022-12-07T14:42:28;5.10;;;4.70;;
36279;SDS011;22317;47.936;12.742;2022-12-07T14:44:56;4.97;;;4.47;;
36279;SDS011;22317;47.936;12.742;2022-12-07T14:47:22;4.07;;;3.77;;
36279;SDS011;22317;47.936;12.742;2022-12-07T14:49:49;4.93;;;4.43;;
36279;SDS011;22317;47.936;12.742;2022-12-07T14:52:23;5.03;;;4.57;;
36279;SDS011;22317;47.936;12.742;2022-12-07T14:54:52;5.60;;;5.10;;
36279;SDS011;22317;47.936;12.742;2022-12-07T14:57:19;5.50;;;5.00;;
36279;SDS011;22317;47.936;12.742;2022-12-07T14:59:45;7.77;;;5.60;;
36279;SDS011;22317;47.936;12.742;2022-12-07T15:02:12;5.70;;;5.20;;
36279;SDS011;22317;47.936;12.742;2022-12-07T15:04:39;5.47;;;4.97;;
36279;SDS011;22317;47.936;12.742;2022-12-07T15:07:06;5.90;;;5.37;;
36279;SDS011;22317;47.936;12.742;2022-12-07T15:09:44;5.73;;;5.20;;
36279;SDS011;22317;47.936;12.742;2022-12-07T15:12:09;7.77;;;6.37;;
36279;SDS011;22317;47.936;12.742;2022-12-07T15:14:35;6.83;;;6.13;;
36279;SDS011;22317;47.936;12.742;2022-12-07T15:17:01;7.27;;;6.10;;
36279;SDS011;22317;47.936;12.742;2022-12-07T15:19:26;5.70;;;5.20;;
36279;SDS011;22317;47.936;12.742;2022-12-07T15:21:52;6.50;;;5.77;;
36279;SDS011;22317;47.936;12.742;2022-12-07T15:24:18;10.53;;;8.47;;
36279;SDS011;22317;47.936;12.742;2022-12-07T15:26:45;7.37;;;6.10;;
36279;SDS011;22317;47.936;12.742;2022-12-07T15:29:11;5.83;;;5.33;;
36279;SDS011;22317;47.936;12.742;2022-12-07T15:31:37;5.93;;;5.27;;
36279;SDS011;22317;47.936;12.742;2022-12-07T15:34:03;7.97;;;7.17;;
36279;SDS011;22317;47.936;12.742;2022-12-07T15:36:30;8.87;;;7.67;;
36279;SDS011;22317;47.936;12.742;2022-12-07T15:38:57;8.57;;;7.10;;
36279;SDS011;22317;47.936;12.742;2022-12-07T15:41:23;8.53;;;6.33;;
36279;SDS011;22317;47.936;12.742;2022-12-07T15:43:49;6.00;;;5.43;;
36279;SDS011;22317;47.936;12.742;2022-12-07T15:46:37;9.00;;;5.03;;
36279;SDS011;22317;47.936;12.742;2022-12-07T15:49:06;5.77;;;5.27;;
36279;SDS011;22317;47.936;12.742;2022-12-07T15:51:44;6.00;;;5.50;;
36279;SDS011;22317;47.936;12.742;2022-12-07T15:54:16;6.63;;;5.97;;
36279;SDS011;22317;47.936;12.742;2022-12-07T15:56:45;6.60;;;5.97;;
36279;SDS011;22317;47.936;12.742;2022-12-07T15:59:11;6.53;;;5.73;;
36279;SDS011;22317;47.936;12.742;2022-12-07T16:01:36;5.50;;;5.00;;
36279;SDS011;22317;47.936;12.742;2022-12-07T16:04:02;7.43;;;6.20;;
36279;SDS011;22317;47.936;12.742;2022-12-07T16:06:28;7.20;;;6.37;;
36279;SDS011;22317;47.936;12.742;2022-12-07T16:08:54;7.53;;;6.40;;
36279;SDS011;22317;47.936;12.742;2022-12-07T16:11:20;15.10;;;8.90;;
36279;SDS011;22317;47.936;12.742;2022-12-07T16:13:46;12.03;;;8.10;;
36279;SDS011;22317;47.936;12.742;2022-12-07T16:16:15;11.83;;;8.43;;
36279;SDS011;22317;47.936;12.742;2022-12-07T16:18:42;15.67;;;9.77;;
36279;SDS011;22317;47.936;12.742;2022-12-07T16:21:09;20.80;;;13.43;;
36279;SDS011;22317;47.936;12.742;2022-12-07T16:23:35;23.47;;;16.47;;
36279;SDS011;22317;47.936;12.742;2022-12-07T16:26:08;22.20;;;12.83;;
36279;SDS011;22317;47.936;12.742;2022-12-07T16:28:41;25.27;;;14.30;;
36279;SDS011;22317;47.936;12.742;2022-12-07T16:31:12;16.77;;;10.00;;
36279;SDS011;22317;47.936;12.742;2022-12-07T16:33:40;14.53;;;9.63;;
36279;SDS011;22317;47.936;12.742;2022-12-07T16:36:07;11.33;;;8.87;;
36279;SDS011;22317;47.936;12.742;2022-12-07T16:38:35;13.00;;;8.67;;
36279;SDS011;22317;47.936;12.742;2022-12-07T16:41:01;16.43;;;11.30;;
36279;SDS011;22317;47.936;12.742;2022-12-07T16:43:27;16.70;;;11.40;;
36279;SDS011;22317;47.936;12.742;2022-12-07T16:45:53;19.70;;;12.20;;
36279;SDS011;22317;47.936;12.742;2022-12-07T16:48:19;24.60;;;18.90;;
36279;SDS011;22317;47.936;12.742;2022-12-07T16:50:45;13.07;;;10.13;;
36279;SDS011;22317;47.936;12.742;2022-12-07T16:53:12;11.10;;;8.57;;
36279;SDS011;22317;47.936;12.742;2022-12-07T16:55:39;11.20;;;9.23;;
36279;SDS011;22317;47.936;12.742;2022-12-07T16:58:07;9.90;;;8.80;;
36279;SDS011;22317;47.936;12.742;2022-12-07T17:00:33;7.43;;;6.73;;
36279;SDS011;22317;47.936;12.742;2022-12-07T17:02:59;8.07;;;7.27;;